Time,TemperatureF,DewpointF,PressureIn,WindDirection,WindDirectionDegrees,WindSpeedMPH,WindSpeedGustMPH,Humidity,HourlyPrecipIn,Conditions,Clouds,dailyrainin,SoftwareType,DateUTC
2013-04-03 00:08:00,23.0,16.0,30.14,West,276,0.0,0.0,75,0.00,,,0.00,weatherlink.com 1.10,2013-04-03 04:08:00,
2013-04-03 00:23:00,22.5,16.0,30.14,West,276,0.0,0.0,76,0.00,,,0.00,weatherlink.com 1.10,2013-04-03 04:23:00,
2013-04-03 00:38:00,22.3,16.0,30.14,West,275,0.0,0.0,77,0.00,,,0.00,weatherlink.com 1.10,2013-04-03 04:38:00,
2013-04-03 00:53:00,22.2,17.0,30.14,West,275,0.0,0.0,79,0.00,,,0.00,weatherlink.com 1.10,2013-04-03 04:53:00,
2013-04-03 01:08:00,21.9,16.0,30.14,West,276,0.0,0.0,79,0.00,,,0.00,weatherlink.com 1.10,2013-04-03 05:08:00,
2013-04-03 01:23:00,22.4,18.0,30.14,NNE,32,0.0,1.0,82,0.00,,,0.00,weatherlink.com 1.10,2013-04-03 05:23:00,
2013-04-03 01:39:00,22.6,18.0,30.14,SW,224,0.0,0.0,82,0.00,,,0.00,weatherlink.com 1.10,2013-04-03 05:39:00,
2013-04-03 01:54:00,22.3,18.0,30.14,SW,224,0.0,0.0,82,0.00,,,0.00,weatherlink.com 1.10,2013-04-03 05:54:00,
2013-04-03 02:09:00,21.8,17.0,30.14,SW,224,0.0,0.0,81,0.00,,,0.00,weatherlink.com 1.10,2013-04-03 06:09:00,
2013-04-03 02:24:00,21.6,17.0,30.14,SW,224,0.0,0.0,81,0.00,,,0.00,weatherlink.com 1.10,2013-04-03 06:24:00,
2013-04-03 02:39:00,21.0,16.0,30.14,SW,224,0.0,0.0,81,0.00,,,0.00,weatherlink.com 1.10,2013-04-03 06:39:00,
2013-04-03 02:54:00,20.7,16.0,30.14,West,281,0.0,0.0,83,0.00,,,0.00,weatherlink.com 1.10,2013-04-03 06:54:00,
2013-04-03 03:09:00,20.6,16.0,30.14,West,281,0.0,0.0,83,0.00,,,0.00,weatherlink.com 1.10,2013-04-03 07:09:00,
2013-04-03 03:24:00,20.0,16.0,30.14,West,281,0.0,0.0,83,0.00,,,0.00,weatherlink.com 1.10,2013-04-03 07:24:00,
2013-04-03 03:39:00,19.7,16.0,30.14,West,281,0.0,0.0,84,0.00,,,0.00,weatherlink.com 1.10,2013-04-03 07:39:00,
2013-04-03 03:54:00,19.5,15.0,30.15,West,281,0.0,0.0,84,0.00,,,0.00,weatherlink.com 1.10,2013-04-03 07:54:00,
2013-04-03 04:09:00,19.3,16.0,30.15,West,281,0.0,0.0,85,0.00,,,0.00,weatherlink.com 1.10,2013-04-03 08:09:00,
2013-04-03 04:24:00,18.8,15.0,30.15,West,281,0.0,0.0,85,0.00,,,0.00,weatherlink.com 1.10,2013-04-03 08:24:00,
2013-04-03 04:39:00,18.6,15.0,30.16,West,281,0.0,0.0,85,0.00,,,0.00,weatherlink.com 1.10,2013-04-03 08:39:00,
2013-04-03 04:54:00,18.4,15.0,30.16,West,281,0.0,0.0,86,0.00,,,0.00,weatherlink.com 1.10,2013-04-03 08:54:00,
2013-04-03 05:09:00,18.6,15.0,30.16,West,281,0.0,0.0,86,0.00,,,0.00,weatherlink.com 1.10,2013-04-03 09:09:00,
2013-04-03 05:24:00,18.7,16.0,30.17,West,278,0.0,1.0,87,0.00,,,0.00,weatherlink.com 1.10,2013-04-03 09:24:00,
2013-04-03 05:39:00,18.8,16.0,30.18,NNE,23,0.0,0.0,87,0.00,,,0.00,weatherlink.com 1.10,2013-04-03 09:39:00,
2013-04-03 05:54:00,18.9,16.0,30.18,NNE,23,0.0,1.0,87,0.00,,,0.00,weatherlink.com 1.10,2013-04-03 09:54:00,
2013-04-03 06:09:00,18.7,16.0,30.18,NNE,23,0.0,0.0,87,0.00,,,0.00,weatherlink.com 1.10,2013-04-03 10:09:00,
2013-04-03 06:24:00,19.8,17.0,30.19,WNW,297,0.0,1.0,88,0.00,,,0.00,weatherlink.com 1.10,2013-04-03 10:24:00,
2013-04-03 06:39:00,20.9,17.0,30.19,WSW,257,1.0,2.0,85,0.00,,,0.00,weatherlink.com 1.10,2013-04-03 10:39:00,
2013-04-03 07:09:00,20.4,16.0,30.21,WSW,256,0.0,1.0,84,0.00,,,0.00,weatherlink.com 1.10,2013-04-03 11:09:00,
2013-04-03 07:24:00,20.9,17.0,30.22,West,259,0.0,1.0,84,0.00,,,0.00,weatherlink.com 1.10,2013-04-03 11:24:00,
2013-04-03 07:39:00,21.6,18.0,30.22,WSW,257,0.0,1.0,85,0.00,,,0.00,weatherlink.com 1.10,2013-04-03 11:39:00,
2013-04-03 07:54:00,24.3,20.0,30.22,WNW,287,0.0,2.0,84,0.00,,,0.00,weatherlink.com 1.10,2013-04-03 11:54:00,
2013-04-03 08:09:00,25.7,21.0,30.23,WNW,302,1.0,2.0,82,0.00,,,0.00,weatherlink.com 1.10,2013-04-03 12:09:00,
2013-04-03 08:24:00,28.1,21.0,30.23,WSW,238,2.0,6.0,76,0.00,,,0.00,weatherlink.com 1.10,2013-04-03 12:24:00,
2013-04-03 08:39:00,29.1,21.0,30.23,WNW,300,0.0,7.0,73,0.00,,,0.00,weatherlink.com 1.10,2013-04-03 12:39:00,
2013-04-03 08:54:00,29.6,22.0,30.23,NE,39,0.0,9.0,72,0.00,,,0.00,weatherlink.com 1.10,2013-04-03 12:54:00,
2013-04-03 09:10:00,30.1,21.0,30.23,WNW,293,4.0,10.0,69,0.00,,,0.00,weatherlink.com 1.10,2013-04-03 13:10:00,
2013-04-03 09:25:00,30.4,19.0,30.24,West,273,6.0,8.0,64,0.00,,,0.00,weatherlink.com 1.10,2013-04-03 13:25:00,
2013-04-03 09:40:00,30.6,18.0,30.24,ENE,72,1.0,9.0,59,0.00,,,0.00,weatherlink.com 1.10,2013-04-03 13:40:00,
2013-04-03 09:55:00,31.5,18.0,30.25,NNE,15,1.0,11.0,57,0.00,,,0.00,weatherlink.com 1.10,2013-04-03 13:55:00,
2013-04-03 10:10:00,32.3,17.0,30.25,East,98,2.0,7.0,53,0.00,,,0.00,weatherlink.com 1.10,2013-04-03 14:10:00,
2013-04-03 10:25:00,32.7,17.0,30.25,WNW,294,4.0,11.0,52,0.00,,,0.00,weatherlink.com 1.10,2013-04-03 14:25:00,
2013-04-03 10:40:00,33.5,17.0,30.26,WNW,293,6.0,11.0,50,0.00,,,0.00,weatherlink.com 1.10,2013-04-03 14:40:00,
2013-04-03 10:55:00,33.7,17.0,30.26,SW,221,4.0,13.0,51,0.00,,,0.00,weatherlink.com 1.10,2013-04-03 14:55:00,
2013-04-03 11:10:00,33.6,15.0,30.26,West,259,3.0,10.0,46,0.00,,,0.00,weatherlink.com 1.10,2013-04-03 15:10:00,
2013-04-03 11:25:00,34.7,16.0,30.27,WNW,285,4.0,9.0,46,0.00,,,0.00,weatherlink.com 1.10,2013-04-03 15:25:00,
2013-04-03 11:40:00,35.8,15.0,30.27,WNW,300,7.0,13.0,43,0.00,,,0.00,weatherlink.com 1.10,2013-04-03 15:40:00,
2013-04-03 11:55:00,35.2,16.0,30.27,WNW,285,6.0,10.0,45,0.00,,,0.00,weatherlink.com 1.10,2013-04-03 15:55:00,
2013-04-03 12:10:00,35.9,14.0,30.27,WNW,290,5.0,11.0,41,0.00,,,0.00,weatherlink.com 1.10,2013-04-03 16:10:00,
2013-04-03 12:25:00,36.1,15.0,30.27,NW,305,8.0,13.0,42,0.00,,,0.00,weatherlink.com 1.10,2013-04-03 16:25:00,
2013-04-03 12:40:00,35.9,14.0,30.26,WNW,290,5.0,10.0,41,0.00,,,0.00,weatherlink.com 1.10,2013-04-03 16:40:00,
2013-04-03 12:55:00,36.1,16.0,30.26,WNW,291,6.0,11.0,44,0.00,,,0.00,weatherlink.com 1.10,2013-04-03 16:55:00,
2013-04-03 13:10:00,36.2,16.0,30.26,WNW,297,5.0,10.0,43,0.00,,,0.00,weatherlink.com 1.10,2013-04-03 17:10:00,
2013-04-03 13:25:00,37.0,16.0,30.25,WNW,283,3.0,13.0,43,0.00,,,0.00,weatherlink.com 1.10,2013-04-03 17:25:00,
2013-04-03 13:40:00,37.9,18.0,30.26,WNW,288,7.0,15.0,44,0.00,,,0.00,weatherlink.com 1.10,2013-04-03 17:40:00,
2013-04-03 13:55:00,38.7,18.0,30.25,WNW,301,6.0,11.0,43,0.00,,,0.00,weatherlink.com 1.10,2013-04-03 17:55:00,
2013-04-03 14:10:00,37.2,16.0,30.25,NW,316,5.0,13.0,42,0.00,,,0.00,weatherlink.com 1.10,2013-04-03 18:10:00,
2013-04-03 14:25:00,35.8,17.0,30.26,WNW,301,6.0,13.0,47,0.00,,,0.00,weatherlink.com 1.10,2013-04-03 18:25:00,
2013-04-03 14:40:00,35.0,21.0,30.27,NNW,329,3.0,16.0,56,0.00,,,0.00,weatherlink.com 1.10,2013-04-03 18:40:00,
2013-04-03 14:55:00,35.7,20.0,30.27,WNW,295,3.0,11.0,53,0.00,,,0.00,weatherlink.com 1.10,2013-04-03 18:55:00,
2013-04-03 15:10:00,35.3,23.0,30.29,WNW,288,10.0,12.0,61,0.00,,,0.00,weatherlink.com 1.10,2013-04-03 19:10:00,
2013-04-03 15:25:00,34.5,25.0,30.28,WNW,297,3.0,13.0,68,0.00,,,0.00,weatherlink.com 1.10,2013-04-03 19:25:00,
2013-04-03 15:40:00,35.5,23.0,30.28,WNW,302,4.0,10.0,60,0.00,,,0.00,weatherlink.com 1.10,2013-04-03 19:40:00,
2013-04-03 15:55:00,34.7,24.0,30.29,WNW,297,6.0,11.0,66,0.00,,,0.00,weatherlink.com 1.10,2013-04-03 19:55:00,
2013-04-03 16:10:00,33.9,22.0,30.29,WNW,300,4.0,9.0,63,0.00,,,0.00,weatherlink.com 1.10,2013-04-03 20:10:00,
2013-04-03 16:25:00,35.5,21.0,30.29,WNW,297,7.0,12.0,57,0.00,,,0.00,weatherlink.com 1.10,2013-04-03 20:25:00,
2013-04-03 16:40:00,36.7,18.0,30.29,WNW,282,1.0,15.0,47,0.00,,,0.00,weatherlink.com 1.10,2013-04-03 20:40:00,
2013-04-03 16:56:00,37.2,18.0,30.29,WNW,285,7.0,16.0,45,0.00,,,0.00,weatherlink.com 1.10,2013-04-03 20:56:00,
2013-04-03 17:10:00,36.3,15.0,30.30,West,277,5.0,13.0,41,0.00,,,0.00,weatherlink.com 1.10,2013-04-03 21:10:00,
2013-04-03 17:25:00,37.1,14.0,30.31,WNW,293,7.0,10.0,39,0.00,,,0.00,weatherlink.com 1.10,2013-04-03 21:25:00,
2013-04-03 17:41:00,35.9,12.0,30.32,NW,323,3.0,14.0,37,0.00,,,0.00,weatherlink.com 1.10,2013-04-03 21:41:00,
2013-04-03 17:56:00,35.9,11.0,30.33,NW,323,3.0,12.0,36,0.00,,,0.00,weatherlink.com 1.10,2013-04-03 21:56:00,
2013-04-03 18:11:00,35.3,12.0,30.33,WNW,288,4.0,10.0,39,0.00,,,0.00,weatherlink.com 1.10,2013-04-03 22:11:00,
2013-04-03 18:26:00,34.7,11.0,30.34,NNW,336,3.0,9.0,38,0.00,,,0.00,weatherlink.com 1.10,2013-04-03 22:26:00,
2013-04-03 18:41:00,33.7,12.0,30.35,WNW,288,5.0,11.0,40,0.00,,,0.00,weatherlink.com 1.10,2013-04-03 22:41:00,
2013-04-03 18:56:00,33.2,11.0,30.36,WNW,291,5.0,8.0,40,0.00,,,0.00,weatherlink.com 1.10,2013-04-03 22:56:00,
2013-04-03 19:26:00,32.2,11.0,30.37,WNW,285,3.0,9.0,42,0.00,,,0.00,weatherlink.com 1.10,2013-04-03 23:26:00,
2013-04-03 19:56:00,30.7,12.0,30.36,West,276,1.0,4.0,46,0.00,,,0.00,weatherlink.com 1.10,2013-04-03 23:56:00,
2013-04-03 20:11:00,30.1,12.0,30.36,West,277,1.0,2.0,47,0.00,,,0.00,weatherlink.com 1.10,2013-04-04 00:11:00,
2013-04-03 20:41:00,27.9,14.0,30.37,SSW,212,0.0,1.0,56,0.00,,,0.00,weatherlink.com 1.10,2013-04-04 00:41:00,
2013-04-03 20:56:00,27.1,14.0,30.38,SW,218,0.0,1.0,59,0.00,,,0.00,weatherlink.com 1.10,2013-04-04 00:56:00,
2013-04-03 22:11:00,23.5,15.0,30.36,SW,228,0.0,0.0,71,0.00,,,0.00,weatherlink.com 1.10,2013-04-04 02:11:00,
2013-04-03 22:26:00,22.8,15.0,30.35,SW,228,0.0,1.0,73,0.00,,,0.00,weatherlink.com 1.10,2013-04-04 02:26:00,
2013-04-03 22:41:00,22.4,15.0,30.35,NNE,30,1.0,1.0,74,0.00,,,0.00,weatherlink.com 1.10,2013-04-04 02:41:00,
2013-04-03 22:56:00,22.2,15.0,30.34,WNW,290,0.0,1.0,74,0.00,,,0.00,weatherlink.com 1.10,2013-04-04 02:56:00,
2013-04-03 23:11:00,21.8,15.0,30.35,NNW,347,0.0,1.0,75,0.00,,,0.00,weatherlink.com 1.10,2013-04-04 03:11:00,
2013-04-03 23:26:00,21.5,15.0,30.34,NNW,347,0.0,1.0,77,0.00,,,0.00,weatherlink.com 1.10,2013-04-04 03:26:00,
2013-04-03 23:41:00,21.0,15.0,30.34,WNW,283,0.0,1.0,78,0.00,,,0.00,weatherlink.com 1.10,2013-04-04 03:41:00,
2013-04-03 23:56:00,20.4,15.0,30.35,WNW,283,0.0,0.0,78,0.00,,,0.00,weatherlink.com 1.10,2013-04-04 03:56:00,